createdAt,value
2019-06-27T00:00:48.459Z,24.80
2019-06-27T00:03:19.001Z,24.80
2019-06-27T00:05:49.742Z,24.80
2019-06-27T00:08:19.533Z,24.90
2019-06-27T00:10:48.397Z,24.90
2019-06-27T00:13:18.493Z,24.90
2019-06-27T00:15:49.214Z,24.90
2019-06-27T00:18:19.953Z,25.00
2019-06-27T00:20:49.671Z,24.90
2019-06-27T00:23:19.538Z,24.90
2019-06-27T00:25:48.422Z,24.90
2019-06-27T00:28:18.273Z,24.80
2019-06-27T00:30:47.161Z,24.90
2019-06-27T00:33:17.935Z,24.90
2019-06-27T00:35:48.302Z,24.90
2019-06-27T00:38:18.892Z,25.00
2019-06-27T00:40:48.939Z,25.00
2019-06-27T00:43:18.782Z,25.00
2019-06-27T00:45:48.844Z,25.10
2019-06-27T00:48:22.363Z,25.10
2019-06-27T00:50:52.932Z,25.20
2019-06-27T00:53:24.798Z,25.30
2019-06-27T00:55:55.565Z,25.30
2019-06-27T00:58:25.935Z,25.40
2019-06-27T01:00:55.776Z,25.50
2019-06-27T01:03:25.771Z,25.60
2019-06-27T01:05:56.436Z,25.60
2019-06-27T01:08:25.302Z,25.70
2019-06-27T01:10:55.274Z,25.70
2019-06-27T01:13:25.412Z,25.80
2019-06-27T01:15:56.058Z,25.80
2019-06-27T01:18:26.695Z,25.80
2019-06-27T01:20:56.653Z,25.90
2019-06-27T01:23:27.408Z,25.90
2019-06-27T01:25:57.798Z,25.90
2019-06-27T01:28:29.363Z,25.90
2019-06-27T01:31:00.086Z,25.90
2019-06-27T01:33:30.604Z,25.90
2019-06-27T01:36:03.411Z,26.00
2019-06-27T01:38:32.483Z,26.00
2019-06-27T01:41:03.054Z,26.10
2019-06-27T01:43:34.893Z,26.10
2019-06-27T01:46:06.273Z,26.10
2019-06-27T01:48:37.008Z,26.20
2019-06-27T01:51:06.650Z,26.20
2019-06-27T01:53:37.443Z,26.20
2019-06-27T01:56:07.286Z,26.20
2019-06-27T01:58:38.006Z,26.30
2019-06-27T02:01:08.494Z,26.30
2019-06-27T02:03:38.613Z,26.20
2019-06-27T02:06:08.606Z,26.20
2019-06-27T02:08:40.358Z,26.20
2019-06-27T02:11:10.996Z,26.20
2019-06-27T02:13:40.982Z,26.20
2019-06-27T02:16:11.074Z,26.20
2019-06-27T02:18:41.047Z,26.20
2019-06-27T02:21:10.886Z,26.20
2019-06-27T02:23:41.676Z,26.10
2019-06-27T02:26:11.303Z,26.10
2019-06-27T02:28:41.287Z,26.20
2019-06-27T02:31:11.255Z,26.20
2019-06-27T02:33:41.624Z,26.20
2019-06-27T02:36:11.774Z,26.20
2019-06-27T02:38:40.666Z,26.20
2019-06-27T02:41:10.551Z,26.20
2019-06-27T02:43:41.120Z,26.20
2019-06-27T02:46:11.860Z,26.10
2019-06-27T02:48:41.779Z,26.10
2019-06-27T02:51:13.092Z,26.10
2019-06-27T02:53:43.892Z,26.10
2019-06-27T02:56:12.505Z,26.10
2019-06-27T02:58:42.351Z,26.10
2019-06-27T03:01:12.314Z,26.10
2019-06-27T03:03:42.932Z,26.10
2019-06-27T03:06:13.051Z,26.10
2019-06-27T03:08:43.671Z,26.10
2019-06-27T03:11:13.486Z,26.20
2019-06-27T03:13:43.552Z,26.20
2019-06-27T03:16:14.330Z,26.30
2019-06-27T03:18:44.010Z,26.20
2019-06-27T03:21:14.064Z,26.30
2019-06-27T03:23:44.279Z,26.20
2019-06-27T03:26:14.943Z,26.20
2019-06-27T03:28:51.542Z,26.20
2019-06-27T03:31:17.884Z,26.20
2019-06-27T03:33:49.674Z,26.20
2019-06-27T03:36:19.537Z,26.20
2019-06-27T03:38:50.279Z,26.20
2019-06-27T03:41:20.072Z,26.20
2019-06-27T03:43:51.828Z,26.30
2019-06-27T03:46:21.837Z,26.30
2019-06-27T03:48:57.499Z,26.30
2019-06-27T03:51:44.373Z,26.30
2019-06-27T03:54:17.376Z,26.30
2019-06-27T03:56:55.011Z,26.30
2019-06-27T03:59:26.634Z,26.40
2019-06-27T04:01:57.360Z,26.40
2019-06-27T04:04:27.977Z,26.40
2019-06-27T04:06:57.523Z,26.40
2019-06-27T04:09:28.237Z,26.50
2019-06-27T04:11:58.805Z,26.50
2019-06-27T04:14:29.548Z,26.50
2019-06-27T04:16:59.965Z,26.50
2019-06-27T04:19:31.407Z,26.50
2019-06-27T04:22:02.151Z,26.50
2019-06-27T04:24:32.245Z,26.60
2019-06-27T04:27:02.110Z,26.70
2019-06-27T04:29:33.859Z,26.70
2019-06-27T04:32:03.227Z,26.70
2019-06-27T04:34:35.123Z,26.70
2019-06-27T04:37:05.032Z,26.80
2019-06-27T04:39:34.950Z,26.80
2019-06-27T04:42:05.589Z,26.90
2019-06-27T04:44:36.033Z,26.90
2019-06-27T04:47:05.850Z,26.90
2019-06-27T04:49:36.544Z,26.90
2019-06-27T04:52:06.534Z,26.90
2019-06-27T04:54:36.426Z,27.00
2019-06-27T04:57:06.520Z,27.00
2019-06-27T04:59:51.828Z,27.00
2019-06-27T05:02:07.638Z,27.10
2019-06-27T05:04:38.429Z,27.10
2019-06-27T05:07:08.039Z,27.20
2019-06-27T05:09:40.133Z,27.20
2019-06-27T05:12:10.950Z,27.20
2019-06-27T05:14:40.594Z,27.30
2019-06-27T05:17:11.264Z,27.30
2019-06-27T05:19:40.139Z,27.40
2019-06-27T05:22:10.268Z,27.40
2019-06-27T05:24:42.131Z,27.50
2019-06-27T05:27:12.778Z,27.50
2019-06-27T05:29:44.723Z,27.50
2019-06-27T05:32:14.741Z,27.60
2019-06-27T05:34:45.365Z,27.60
2019-06-27T05:37:15.298Z,27.70
2019-06-27T05:39:45.166Z,27.70
2019-06-27T05:42:15.132Z,27.90
2019-06-27T05:44:45.851Z,27.80
2019-06-27T05:47:15.873Z,27.90
2019-06-27T05:49:46.312Z,27.90
2019-06-27T05:52:17.144Z,28.00
2019-06-27T05:54:47.448Z,28.00
2019-06-27T05:57:18.014Z,28.10
2019-06-27T05:59:47.888Z,28.20
2019-06-27T06:02:18.474Z,28.20
2019-06-27T06:04:49.091Z,28.30
2019-06-27T06:07:20.811Z,28.30
2019-06-27T06:09:50.702Z,28.40
2019-06-27T06:12:21.344Z,28.40
2019-06-27T06:14:51.992Z,28.50
2019-06-27T06:17:21.903Z,28.60
2019-06-27T06:19:52.568Z,28.60
2019-06-27T06:22:23.049Z,28.70
2019-06-27T06:24:53.231Z,28.80
2019-06-27T06:27:23.949Z,28.80
2019-06-27T06:29:55.836Z,28.90
2019-06-27T06:32:26.557Z,29.00
2019-06-27T06:34:56.926Z,29.10
2019-06-27T06:37:26.820Z,29.20
2019-06-27T06:39:56.886Z,29.30
2019-06-27T06:42:26.831Z,29.40
2019-06-27T06:44:57.498Z,29.50
2019-06-27T06:47:28.164Z,29.80
2019-06-27T06:49:58.533Z,30.20
2019-06-27T06:52:29.269Z,31.50
2019-06-27T06:55:01.246Z,33.10
2019-06-27T06:57:32.889Z,34.70
2019-06-27T07:00:03.656Z,36.00
2019-06-27T07:02:33.756Z,36.90
2019-06-27T07:05:02.675Z,37.90
2019-06-27T07:07:33.435Z,38.60
2019-06-27T07:10:03.024Z,39.30
2019-06-27T07:12:33.816Z,39.90
2019-06-27T07:15:03.644Z,40.40
2019-06-27T07:17:34.950Z,40.90
2019-06-27T07:20:08.114Z,41.50
2019-06-27T07:22:38.898Z,41.90
2019-06-27T07:25:10.730Z,42.20
2019-06-27T07:27:40.797Z,42.60
2019-06-27T07:30:12.386Z,42.60
2019-06-27T07:32:44.758Z,42.80
2019-06-27T07:35:14.751Z,42.80
2019-06-27T07:37:43.645Z,42.80
2019-06-27T07:40:15.716Z,42.60
2019-06-27T07:42:46.355Z,42.50
2019-06-27T07:45:18.556Z,42.60
2019-06-27T07:47:48.992Z,42.70
2019-06-27T07:50:19.297Z,42.70
2019-06-27T07:52:50.003Z,42.70
2019-06-27T07:55:20.718Z,42.60
2019-06-27T07:57:50.482Z,42.60
2019-06-27T08:00:21.479Z,42.50
2019-06-27T08:02:50.375Z,42.30
2019-06-27T08:05:22.668Z,42.30
2019-06-27T08:07:52.504Z,42.40
2019-06-27T08:10:23.300Z,42.70
2019-06-27T08:12:51.911Z,42.70
2019-06-27T08:15:23.209Z,43.00
2019-06-27T08:17:54.945Z,43.00
2019-06-27T08:20:26.577Z,43.00
2019-06-27T08:22:56.439Z,43.10
2019-06-27T08:25:28.129Z,43.10
2019-06-27T08:27:58.772Z,43.20
2019-06-27T08:30:29.065Z,43.30
2019-06-27T08:32:59.683Z,43.30
2019-06-27T08:35:33.285Z,43.50
2019-06-27T08:38:00.243Z,43.50
2019-06-27T08:40:30.159Z,43.80
2019-06-27T08:43:00.881Z,43.80
2019-06-27T08:45:30.621Z,44.00
2019-06-27T08:48:00.463Z,44.00
2019-06-27T08:50:31.281Z,44.20
2019-06-27T08:53:01.758Z,44.10
2019-06-27T08:55:31.341Z,44.30
2019-06-27T08:58:00.301Z,44.40
2019-06-27T09:00:30.104Z,44.50
2019-06-27T09:03:00.868Z,44.60
2019-06-27T09:05:30.586Z,44.80
2019-06-27T09:08:01.229Z,44.90
2019-06-27T09:10:31.172Z,44.90
2019-06-27T09:13:04.602Z,44.90
2019-06-27T09:15:36.301Z,44.80
2019-06-27T09:18:06.207Z,44.80
2019-06-27T09:20:36.990Z,45.00
2019-06-27T09:23:06.537Z,45.00
2019-06-27T09:25:37.228Z,45.00
2019-06-27T09:28:07.003Z,45.00
2019-06-27T09:30:37.614Z,45.00
2019-06-27T09:33:08.407Z,45.00
2019-06-27T09:35:38.673Z,44.90
2019-06-27T09:38:09.818Z,45.00
2019-06-27T09:40:40.602Z,45.00
2019-06-27T09:43:10.298Z,45.00
2019-06-27T09:45:40.619Z,44.90
2019-06-27T09:48:12.520Z,45.00
2019-06-27T09:50:42.353Z,44.80
2019-06-27T09:53:13.175Z,44.80
2019-06-27T09:55:42.867Z,44.80
2019-06-27T09:58:12.835Z,44.80
2019-06-27T10:00:43.575Z,44.80
2019-06-27T10:03:13.344Z,44.70
2019-06-27T10:05:43.987Z,44.60
2019-06-27T10:08:14.785Z,44.50
2019-06-27T10:10:45.254Z,44.40
2019-06-27T10:13:15.390Z,44.40
2019-06-27T10:15:45.366Z,44.40
2019-06-27T10:18:15.226Z,44.20
2019-06-27T10:20:45.170Z,44.10
2019-06-27T10:23:14.068Z,43.90
2019-06-27T10:25:44.730Z,43.70
2019-06-27T10:28:13.690Z,43.60
2019-06-27T10:30:43.688Z,43.30
2019-06-27T10:33:13.663Z,42.90
2019-06-27T10:35:46.653Z,42.40
2019-06-27T10:38:16.665Z,41.70
2019-06-27T10:40:46.512Z,41.10
2019-06-27T10:43:16.505Z,40.30
2019-06-27T10:45:49.245Z,39.80
2019-06-27T10:48:19.411Z,39.30
2019-06-27T10:50:48.254Z,38.90
2019-06-27T10:53:19.025Z,38.50
2019-06-27T10:55:49.391Z,38.30
2019-06-27T10:58:19.333Z,38.10
2019-06-27T11:00:50.875Z,37.80
2019-06-27T11:03:22.598Z,37.60
2019-06-27T11:05:53.235Z,37.40
2019-06-27T11:08:23.083Z,37.30
2019-06-27T11:10:53.922Z,37.10
2019-06-27T11:13:23.692Z,37.00
2019-06-27T11:15:53.686Z,36.90
2019-06-27T11:18:24.351Z,36.80
2019-06-27T11:20:54.479Z,36.80
2019-06-27T11:23:25.093Z,36.80
2019-06-27T11:25:55.102Z,36.60
2019-06-27T11:28:25.702Z,36.50
2019-06-27T11:30:56.463Z,36.50
2019-06-27T11:33:32.549Z,36.40
2019-06-27T11:35:56.800Z,36.30
2019-06-27T11:38:26.643Z,36.30
2019-06-27T11:40:57.360Z,36.30
2019-06-27T11:43:27.952Z,36.20
2019-06-27T11:45:59.577Z,36.20
2019-06-27T11:48:31.171Z,36.20
2019-06-27T11:51:00.034Z,36.10
2019-06-27T11:53:30.149Z,36.00
2019-06-27T11:56:00.818Z,35.90
2019-06-27T11:58:30.757Z,35.90
2019-06-27T12:01:00.655Z,35.90
2019-06-27T12:03:29.505Z,35.90
2019-06-27T12:05:59.362Z,35.90
2019-06-27T12:08:30.230Z,35.90
2019-06-27T12:11:00.072Z,35.80
2019-06-27T12:13:30.882Z,35.70
2019-06-27T12:16:00.434Z,35.70
2019-06-27T12:18:30.554Z,35.70
2019-06-27T12:21:01.169Z,35.60
2019-06-27T12:23:31.460Z,35.50
2019-06-27T12:26:05.203Z,35.40
2019-06-27T12:28:37.217Z,35.30
2019-06-27T12:31:19.271Z,35.20
2019-06-27T12:33:37.482Z,35.20
2019-06-27T12:36:09.703Z,35.10
2019-06-27T12:38:40.393Z,35.10
2019-06-27T12:41:11.116Z,35.00
2019-06-27T12:43:41.762Z,35.00
2019-06-27T12:46:11.645Z,35.00
2019-06-27T12:48:41.756Z,35.00
2019-06-27T12:51:12.480Z,35.00
2019-06-27T12:53:42.446Z,34.90
2019-06-27T12:56:13.795Z,34.90
2019-06-27T12:58:44.357Z,34.90
2019-06-27T13:01:14.327Z,34.90
2019-06-27T13:03:44.294Z,34.80
2019-06-27T13:06:14.266Z,34.80
2019-06-27T13:08:45.126Z,34.70
2019-06-27T13:11:17.022Z,34.70
2019-06-27T13:13:45.858Z,34.80
2019-06-27T13:16:17.439Z,34.70
2019-06-27T13:18:47.323Z,34.80
2019-06-27T13:21:16.214Z,34.80
2019-06-27T13:23:48.889Z,34.80
2019-06-27T13:26:16.578Z,34.70
2019-06-27T13:28:47.095Z,34.50
2019-06-27T13:31:17.689Z,34.30
2019-06-27T13:33:48.279Z,34.00
2019-06-27T13:36:18.247Z,33.70
2019-06-27T13:38:48.190Z,33.40
2019-06-27T13:41:18.084Z,33.20
2019-06-27T13:43:49.221Z,33.10
2019-06-27T13:46:18.470Z,32.90
2019-06-27T13:48:48.963Z,32.70
2019-06-27T13:51:19.080Z,32.60
2019-06-27T13:53:47.973Z,32.50
2019-06-27T13:56:16.869Z,32.40
2019-06-27T13:58:47.432Z,32.20
2019-06-27T14:01:17.402Z,32.10
2019-06-27T14:03:49.745Z,31.90
2019-06-27T14:06:18.584Z,31.80
2019-06-27T14:08:48.556Z,31.70
2019-06-27T14:11:20.193Z,31.50
2019-06-27T14:13:50.842Z,31.40
2019-06-27T14:16:20.782Z,31.30
2019-06-27T14:18:51.200Z,31.20
2019-06-27T14:21:21.191Z,31.10
2019-06-27T14:23:51.759Z,31.00
2019-06-27T14:26:22.454Z,30.90
2019-06-27T14:28:53.042Z,30.80
2019-06-27T14:31:24.912Z,30.70
2019-06-27T14:33:56.397Z,30.70
2019-06-27T14:36:25.253Z,30.70
2019-06-27T14:38:55.892Z,30.70
2019-06-27T14:41:26.583Z,30.80
2019-06-27T14:43:56.525Z,30.70
2019-06-27T14:46:25.834Z,30.70
2019-06-27T14:48:58.709Z,30.70
2019-06-27T14:51:29.303Z,30.70
2019-06-27T14:54:00.049Z,30.60
2019-06-27T14:56:29.639Z,30.60
2019-06-27T14:59:01.023Z,30.50
2019-06-27T15:01:31.623Z,30.30
2019-06-27T15:04:01.468Z,30.30
2019-06-27T15:06:30.327Z,30.30
2019-06-27T15:09:02.740Z,30.30
2019-06-27T15:11:33.545Z,30.30
2019-06-27T15:14:03.960Z,30.40
2019-06-27T15:16:35.861Z,30.30
2019-06-27T15:19:07.693Z,30.30
2019-06-27T15:21:37.666Z,30.20
2019-06-27T15:24:07.607Z,30.30
2019-06-27T15:26:39.154Z,30.40
2019-06-27T15:29:08.005Z,30.40
2019-06-27T15:31:38.311Z,30.40
2019-06-27T15:34:07.332Z,30.40
2019-06-27T15:36:36.397Z,30.30
2019-06-27T15:39:06.087Z,30.30
2019-06-27T15:41:34.944Z,30.20
2019-06-27T15:44:03.847Z,30.10
2019-06-27T15:46:32.744Z,30.00
2019-06-27T15:49:01.598Z,30.00
2019-06-27T15:51:30.445Z,30.00
2019-06-27T15:53:59.337Z,30.00
2019-06-27T15:56:28.197Z,30.00
2019-06-27T15:58:57.044Z,29.90
2019-06-27T16:01:26.249Z,29.90
2019-06-27T16:03:55.112Z,29.80
2019-06-27T16:06:25.828Z,29.80
2019-06-27T16:08:57.376Z,29.80
2019-06-27T16:11:26.208Z,29.90
2019-06-27T16:13:55.070Z,29.90
2019-06-27T16:16:23.962Z,29.90
2019-06-27T16:18:52.809Z,29.80
2019-06-27T16:21:21.660Z,29.90
2019-06-27T16:23:50.558Z,29.80
2019-06-27T16:26:19.397Z,29.70
2019-06-27T16:28:48.252Z,29.70
2019-06-27T16:31:17.132Z,29.60
2019-06-27T16:33:45.996Z,29.60
2019-06-27T16:36:24.932Z,29.50
2019-06-27T16:38:45.370Z,29.40
2019-06-27T16:41:14.217Z,29.40
2019-06-27T16:43:43.062Z,29.50
2019-06-27T16:46:11.951Z,29.50
2019-06-27T16:48:40.819Z,29.50
2019-06-27T16:51:09.654Z,29.40
2019-06-27T16:53:38.552Z,29.30
2019-06-27T16:56:07.400Z,29.30
2019-06-27T16:58:36.282Z,29.30
2019-06-27T17:01:05.169Z,29.20
2019-06-27T17:03:34.015Z,29.10
2019-06-27T17:06:02.920Z,29.10
2019-06-27T17:08:34.812Z,29.10
2019-06-27T17:11:03.657Z,29.00
2019-06-27T17:13:32.551Z,29.10
2019-06-27T17:16:01.419Z,29.10
2019-06-27T17:18:30.269Z,29.00
2019-06-27T17:20:59.173Z,29.00
2019-06-27T17:23:28.024Z,29.00
2019-06-27T17:26:00.247Z,28.90
2019-06-27T17:28:34.962Z,28.90
2019-06-27T17:31:03.232Z,28.90
2019-06-27T17:33:33.426Z,28.80
2019-06-27T17:36:05.202Z,28.80
2019-06-27T17:38:34.056Z,28.70
2019-06-27T17:41:02.898Z,28.70
2019-06-27T17:43:33.303Z,28.60
2019-06-27T17:46:02.187Z,28.60
2019-06-27T17:48:31.024Z,28.50
2019-06-27T17:50:59.904Z,28.50
2019-06-27T17:53:28.743Z,28.40
2019-06-27T17:55:57.588Z,28.40
2019-06-27T17:58:26.471Z,28.40
2019-06-27T18:00:55.312Z,28.30
2019-06-27T18:03:24.151Z,28.30
2019-06-27T18:05:53.076Z,28.20
2019-06-27T18:08:21.912Z,28.20
2019-06-27T18:10:50.756Z,28.20
2019-06-27T18:13:19.637Z,28.20
2019-06-27T18:15:48.479Z,28.10
2019-06-27T18:18:18.304Z,28.10
2019-06-27T18:20:47.217Z,28.00
2019-06-27T18:23:16.058Z,28.00
2019-06-27T18:25:44.936Z,28.00
2019-06-27T18:28:13.817Z,27.90
2019-06-27T18:30:42.664Z,27.80
2019-06-27T18:33:11.545Z,27.80
2019-06-27T18:35:40.432Z,27.80
2019-06-27T18:38:09.244Z,27.70
2019-06-27T18:40:38.131Z,27.60
2019-06-27T18:43:06.975Z,27.50
2019-06-27T18:45:38.509Z,27.40
2019-06-27T18:48:09.975Z,27.40
2019-06-27T18:58:06.777Z,27.30
2019-06-27T19:00:38.380Z,27.00
2019-06-27T19:03:07.314Z,27.00
2019-06-27T19:05:36.157Z,26.90
2019-06-27T19:08:05.006Z,26.90
2019-06-27T19:10:33.912Z,26.90
2019-06-27T19:13:02.773Z,26.80
2019-06-27T19:38:12.883Z,26.80
2019-06-27T19:40:42.843Z,26.10
2019-06-27T19:43:26.656Z,26.00
